EGXT

RAF Wittering Airport

Wittering, United Kingdom
METAR EGXT 221650Z AUTO 24015KT 9999 SCT048/// SCT070/// 17/10 Q1007
Observed Flight Rules
Apr-22 @ 16:50 UTC (an hour ago) Visual Flight Rules
Wind Visibility Clouds
240° at 15 knots 10,000+ meters
  • Scattered at 4,800' AGL
  • Scattered at 7,000' AGL
Temperatures Readings
Current 17°C / 63°F
Dewpoint 10°C / 50°F
Humidity 64%
Altimeter 29.73" Hg
Pressure 1007 hPa
Elevation 84
METAR EGXT 221650Z AUTO 24015KT 9999 SCT048/// SCT070/// 17/10 Q1007
Observed Flight Rules
Apr-22 @ 16:50 UTC
(an hour ago)
VFR
Wind Visibility
240° at 15 knots 10,000+ meters
Clouds
  • Scattered at 4,800' AGL
  • Scattered at 7,000' AGL
Temperature Dewpoint
17°C / 63°F 10°C / 50°F
Humidity Altimeter Pressure
64% 29.73" Hg 1007 hPa